Racecast

Land Lambert

BYU (CA) · Fr · CO D5A4A · Compare head to head

what a rating means
100 is the average runner in the athlete's pool; a rating of 133 means 33% faster than that average runner. Ratings are distance-normalised and course-adjusted, so a hard course and a fast track land on one number. Each pool (high school boys, college women, middle school…) has its own average, and the HS-equivalent view puts every pool on the high-school scale.
Athlete rating 114.5 2026 TF season
Best race 140.6 XC
Races 55
Seasons 7 2018 — 2026

RankedNation #1553·NCAA DI #1077·MOUNTAIN #152·WEST COAST #43·UT #24·Team #47 ?

Rating scale ?
Speed rating — all races

Cross Country

XC speed rating

2025 XC 112.2

Unattached (TX) · Grade 2028

Date Meet Event Result Place Rating Difficulty PR/SR Flags
2025-10-10 Steve and Dona Reeder Cross Country Course) 7000m 21:20.1 3rd · 1st on team 112.2 -3.3% ★PR ★CR SR CSR RSR

2022 XC 115.5

BYU (CA) · Grade Fr

Date Meet Event Result Place Rating Difficulty PR/SR Flags
2022-10-14 Zimmer Championship Cross Country Course 8000m 25:30.5 77th · 5th on team 113.0 -0.5% ★CR CSR
2022-09-24 Oklahoma State University XC Course 8000m 24:53.5 120th · 11th on team 118.3 +1.0% ★PR ★CR SR CSR RSR
2022-09-09 Valley Regional Park 7500m 23:00.4 10th · 2nd on team 115.2 -3.0% ★PR ★CR SR CSR RSR

2021 XC 136.9

Unattached (TX) · Grade 12

Date Meet Event Result Place Rating Difficulty PR/SR Flags
2021-12-04 John Hunt Cross Country Park 5000m 14:50.5 50th · 27th on team 140.6 -1.7% ★PR ★CR ★R SR CSR RSR
2021-11-20 Shalimar Country Club 5000m 15:02.2 4th · 1st on team 140.0 -1.7% PR ★CR R SR CSR RSR
2021-10-21 Elmwood Golf Course 5000m 16:07.5 2nd · 1st on team 135.3 +1.6% ★CR CSR
2021-10-01 Hillcrest Golf Club 5000m 16:26 1st · 1st on team 132.0 +1.8% ★CR CSR
2021-09-24 Links Golf Course 5000m 15:09.7 10th · 1st on team 138.9 -1.3% PR ★CR R SR CSR RSR
2021-09-11 Cattails Golf Course 5000m 15:59.6 2nd · 1st on team 133.2 -0.9% ★CR SR CSR
2021-08-28 Miloit Park 5000m 16:47 1st · 1st on team 138.4 +9.6% ★CR R SR CSR RSR

2020 XC 129.6

Durango (NV) · Grade 11

Date Meet Event Result Place Rating Difficulty PR/SR Flags
2020-10-09 Elmwood Golf Course 5000m 16:54.9 4th · 2nd on team 130.2 +1.6% CR CSR
2020-09-25 Lincoln Park Golf Course 5000m 15:55.8 4th · 2nd on team 131.1 -3.3% PR ★CR R SR CSR RSR
2020-09-18 Hillcrest Golf Club 5000m 17:03 3rd · 2nd on team 127.4 +1.8% CR SR CSR RSR

2019 XC 123.2

Durango (NV) · Grade 10

Date Meet Event Result Place Rating Difficulty PR/SR Flags
2019-11-23 Grande Sports Complex 5000m 16:53.9 209th · 3rd on team 122.8 -1.6%
2019-10-26 Norris Penrose Event Center 5000m 17:11 44th · 4th on team 129.1 +4.3% ★CR R CSR RSR
2019-10-18 Confluence Park 5000m 16:47.1 16th · 4th on team 122.9 -2.1% ★CR CSR
2019-09-27 Grande Sports Complex 5000m 16:32.9 116th · 4th on team 124.6 -1.6% PR ★CR R SR CSR RSR
2019-09-20 Snooks Bottom Open Space 5000m 17:39.7 8th · 3rd on team 120.5 +0.7% ★CR R CSR RSR
2019-09-07 Cattails Golf Course 5000m 17:34.5 33rd · 4th on team 119.2 -0.9% CR R SR CSR RSR

2018 XC 116.2

Durango (NV) · Grade 9

Date Meet Event Result Place Rating Difficulty PR/SR Flags
2018-09-28 Lincoln Park Golf Course 5000m 17:21.7 17th · 3rd on team 118.8 -3.3% PR CR R SR CSR RSR
2018-09-08 Heritage High School 5000m 18:14.1 38th · 1st on team 113.7 -2.3% PR ★CR R SR CSR RSR

Track & Field

TF speed rating

2026 TF 113.4

BYU (CA) · Grade Fr

Date Meet Event Result Place Rating Difficulty PR/SR Flags
2026-04-03 Stanford Invite 5000m 14:28.94 20th · 2nd on team 112.3 -1.8%
2026-03-26 2026 UVU Collegiate Invitational 1500m 3:57.57 9th · 5th on team 113.7 +2.2% ★PR SR
2026-01-30 John Thomas Terrier Classic 5000m 14:00.61 17th · 3rd on team 115.6 -2.2% ★PR SR RSR
2025-12-10 BYU December Invitational 3000m 8:44.4 8th · 3rd on team 111.8 +2.3% ★PR SR RSR

2022 TF 131.8

Durango (NV) · Grade 12

Date Meet Event Result Place Rating Difficulty PR/SR Flags
2022-05-21 CHSSA State Championships 1600m 4:18.34 5th · 1st on team 133.4 +2.1%
2022-05-21 CHSSA State Championships 3200m 9:10.44 5th · 1st on team 134.4 +2.1% ★PR SR RSR
2022-05-14 Dennis Teeters Tiger Invitational 3200m 9:15.06 1st · 1st on team 134.1 +1.7% PR SR RSR
2022-04-30 Liberty Bell Track and Field Invitational 3200m 9:31.1 1st · 1st on team 130.8 +1.7% PR SR
2022-04-30 Liberty Bell Track and Field Invitational 1600m 4:17.72 3rd · 1st on team 133.8 +1.7% ★PR SR RSR
2022-04-14 High Altitude Challenge 1600m 4:34.5 1st · 1st on team 129.7 +5.2%
2022-04-09 Abel Velasquez Invitational 800m 2:01.57 1st · 1st on team 131.1 +4.7% ★PR SR RSR
2022-04-09 Abel Velasquez Invitational 1600m 4:28.15 2nd · 2nd on team 132.5 +4.7% SR RSR
2022-03-12 PIEDRA VISTA TURNER RELAYS shot ND +2.6%
2022-03-12 PIEDRA VISTA TURNER RELAYS 1600m 4:34.46 2nd · 2nd on team 126.4 +2.6% SR RSR

2021 TF 129.1

Durango (NV) · Grade 11

Date Meet Event Result Place Rating Difficulty PR/SR Flags
2021-06-26 Colorado State Track and Field Championships 3200m 9:41.55 13th · 3rd on team 129.6 +2.1%
2021-06-26 Colorado State Track and Field Championships 1600m 4:25.19 15th · 2nd on team 131.0 +2.1%
2021-06-18 Grand Junction Tiger Invitational 3200m 9:36.97 2nd · 2nd on team 130.3 +1.7% PR SR
2021-06-18 Grand Junction Tiger Invitational 1600m 4:23.73 1st · 1st on team 131.3 +1.7% PR R SR RSR
2021-06-05 Ron Keller Invitational 3200m 9:46.7 2nd · 2nd on team 131.2 +4.1% PR R SR RSR
2021-06-05 Ron Keller Invitational 800m 2:02.87 2nd · 2nd on team 129.4 +4.1% PR SR
2021-05-22 Pine River Invitational 1600m 4:41.82 3rd · 2nd on team 127.2 +5.2%
2021-05-22 Pine River Invitational 800m 2:09.64 3rd · 3rd on team 123.9 +5.2%
2021-05-14 High Altitude Challenge 800m 2:03.92 4th · 2nd on team 129.4 +5.2% PR SR RSR
2021-05-14 High Altitude Challenge 1600m 4:33.14 3rd · 1st on team 131.0 +5.2% PR SR RSR
2021-05-08 BYU HS Invitational 1600m 4:35.22 57th · 3rd on team 125.2 +0.7% PR SR RSR

2019 TF 112.6

Durango (NV) · Grade 9

Date Meet Event Result Place Rating Difficulty PR/SR Flags
2019-04-27 Aztec Invitational 1600m 4:59.65 11th · 1st on team 117.8 +3.2% PR SR RSR
2019-04-13 Pine River Invitational 800m 2:17.51 10th · 3rd on team 116.6 +5.2% RSR
2019-04-13 Pine River Invitational 1600m 5:14.19 10th · 5th on team 114.4 +5.2% PR SR
2019-04-06 Abel Velasquez Invitational 800m 2:25.9 6th · 2nd on team 108.3 +4.2%
2019-04-06 Abel Velasquez Invitational 1600m 5:18.61 5th · 2nd on team 111.5 +4.2% PR SR
2019-03-16 Piedra Vista Invitational 800m 2:16.73 8th · 2nd on team 113.6 +2.6% PR SR RSR
2019-03-16 Piedra Vista Invitational 3200m 11:34.59 5th · 3rd on team 109.2 +2.6% PR SR
2019-03-09 Farmington Early Bird 1600m 5:21.8 23rd · 6th on team 109.2 +2.6% PR SR RSR